Terminal Aerodrome Forecast
Issued by NWS

Home | Current Version | Previous Version | Graphics & Text | Print | Product List | Glossary On
Versions: 1 2 3 4 5 6 7 8 9 10 11 12 13 14 15 16 17
000
FTUS43 KIWX 292300
TAFSBN
TAF
KSBN 292338Z 3000/3024 33008KT P6SM FEW050
     FM300100 27004KT P6SM SCT070
     FM301600 30010KT P6SM SCT040 BKN250=

USA.gov is the U.S. government's official web portal to all federal, state and local government web resources and services.